Time;durP1;ratioP1;P1;durP2;ratioP2;P2;SDS_P1;SDS_P2;PMS_P1;PMS_P2;Temp;Humidity;BMP_temperature;BMP_pressure;BME280_temperature;BME280_humidity;BME280_pressure;Samples;Min_cycle;Max_cycle;Signal;HPM_P1;HPM_P2
2023/05/27 00:01:42;;;;;;;7.72;1.73;;;11.50;60.30;;;;;;4972236;28;20126;-87
2023/05/27 00:04:09;;;;;;;9.65;2.20;;;11.50;60.30;;;;;;4972392;28;20051;-85
2023/05/27 00:06:37;;;;;;;10.93;2.53;;;11.50;60.30;;;;;;4972497;28;20078;-87
2023/05/27 00:09:04;;;;;;;8.93;2.08;;;11.50;60.30;;;;;;4972389;28;20050;-85
2023/05/27 00:11:32;;;;;;;8.53;1.80;;;11.50;60.30;;;;;;4971835;28;20050;-86
2023/05/27 00:13:59;;;;;;;6.63;2.20;;;11.50;60.40;;;;;;4972094;28;20071;-87
2023/05/27 00:16:26;;;;;;;9.13;2.10;;;11.40;60.40;;;;;;4971688;28;20572;-86
2023/05/27 00:18:54;;;;;;;6.60;2.25;;;11.40;60.50;;;;;;4988396;28;20141;-86
2023/05/27 00:21:21;;;;;;;7.30;1.92;;;11.40;60.60;;;;;;4971510;28;20086;-85
2023/05/27 00:23:52;;;;;;;9.23;1.90;;;11.40;60.60;;;;;;4988188;28;20059;-86
2023/05/27 00:26:20;;;;;;;7.38;2.00;;;11.30;60.60;;;;;;4988229;28;20129;-85
2023/05/27 00:28:50;;;;;;;9.82;2.10;;;11.30;60.40;;;;;;5004810;28;20054;-85
2023/05/27 00:31:18;;;;;;;7.20;1.88;;;11.30;60.60;;;;;;4972313;28;20047;-85
2023/05/27 00:33:46;;;;;;;6.78;2.17;;;11.30;60.70;;;;;;4974121;28;20055;-86
2023/05/27 00:36:13;;;;;;;6.67;1.97;;;11.20;60.80;;;;;;4991702;28;20058;-85
2023/05/27 00:38:42;;;;;;;8.07;2.10;;;11.10;60.90;;;;;;4971872;28;20810;-85
2023/05/27 00:41:12;;;;;;;7.85;1.85;;;11.10;61.00;;;;;;5004211;28;20055;-85
2023/05/27 00:43:40;;;;;;;10.05;2.20;;;11.10;61.00;;;;;;4970814;28;20046;-85
2023/05/27 00:46:07;;;;;;;7.78;2.20;;;11.10;61.00;;;;;;4987055;28;20137;-85
2023/05/27 00:48:34;;;;;;;7.77;2.50;;;11.10;61.10;;;;;;4954719;28;20057;-84
2023/05/27 00:51:02;;;;;;;9.05;2.47;;;11.10;61.30;;;;;;4989750;28;20094;-86
2023/05/27 00:53:37;;;;;;;6.20;1.98;;;11.10;61.40;;;;;;4967631;28;20047;-85
2023/05/27 00:56:06;;;;;;;7.05;1.90;;;11.00;61.40;;;;;;4971828;28;20062;-86
2023/05/27 00:58:35;;;;;;;7.28;1.85;;;11.00;61.30;;;;;;4973122;28;20497;-85
2023/05/27 01:01:03;;;;;;;7.80;1.90;;;11.00;61.40;;;;;;4973129;28;20634;-85
2023/05/27 01:03:32;;;;;;;6.72;2.00;;;10.90;61.10;;;;;;4973603;28;20109;-85
2023/05/27 01:06:07;;;;;;;7.65;2.10;;;10.90;61.10;;;;;;4955079;28;20047;-85
2023/05/27 01:08:42;;;;;;;8.30;2.10;;;10.90;61.20;;;;;;4956506;28;20173;-85
2023/05/27 01:11:12;;;;;;;7.65;2.13;;;10.90;61.30;;;;;;4971802;28;20142;-86
2023/05/27 01:13:50;;;;;;;6.80;2.03;;;10.80;61.30;;;;;;4955828;28;20138;-85
2023/05/27 01:16:19;;;;;;;8.48;2.20;;;10.80;61.30;;;;;;4958468;28;20145;-85
2023/05/27 01:18:47;;;;;;;8.88;2.40;;;10.70;61.40;;;;;;4957802;28;20548;-85
2023/05/27 01:21:17;;;;;;;8.07;2.33;;;10.70;61.60;;;;;;4971102;28;20051;-86
2023/05/27 01:23:48;;;;;;;7.40;2.13;;;10.70;61.80;;;;;;4954725;28;20142;-85
2023/05/27 01:26:16;;;;;;;7.27;2.27;;;10.60;61.90;;;;;;4971047;28;20082;-85
2023/05/27 01:28:44;;;;;;;6.68;2.40;;;10.60;62.20;;;;;;4970857;28;20083;-85
2023/05/27 01:31:19;;;;;;;8.13;1.95;;;10.50;62.40;;;;;;4954842;28;20059;-85
2023/05/27 01:33:56;;;;;;;7.38;2.03;;;10.40;62.60;;;;;;4954933;28;20055;-85
2023/05/27 01:36:27;;;;;;;6.53;2.00;;;10.30;62.80;;;;;;4954778;28;20047;-85
2023/05/27 01:38:57;;;;;;;7.47;2.17;;;10.30;62.70;;;;;;4954990;28;20071;-85
2023/05/27 01:41:26;;;;;;;6.25;1.55;;;10.30;62.80;;;;;;4970480;28;20506;-86
2023/05/27 01:43:54;;;;;;;7.07;1.90;;;10.30;62.80;;;;;;4971237;28;20146;-86
2023/05/27 01:46:21;;;;;;;8.25;1.70;;;10.30;62.80;;;;;;4974346;28;20082;-87
2023/05/27 01:48:49;;;;;;;8.77;2.22;;;10.20;62.90;;;;;;4958609;28;20047;-85
2023/05/27 01:51:16;;;;;;;6.97;1.87;;;10.20;63.10;;;;;;4973710;28;20797;-87
2023/05/27 01:53:43;;;;;;;9.60;2.63;;;10.20;63.20;;;;;;4990182;28;20911;-85
2023/05/27 01:56:11;;;;;;;7.85;2.22;;;10.20;63.20;;;;;;4972996;28;20055;-85
2023/05/27 01:58:38;;;;;;;6.45;2.33;;;10.10;63.50;;;;;;5007128;28;20089;-85
2023/05/27 02:01:06;;;;;;;8.02;2.35;;;10.10;63.70;;;;;;4973604;28;20106;-86
2023/05/27 02:03:33;;;;;;;8.60;2.50;;;10.10;63.70;;;;;;4974259;28;20051;-85
2023/05/27 02:06:00;;;;;;;6.63;1.85;;;10.10;63.80;;;;;;4990518;28;20102;-86
2023/05/27 02:08:27;;;;;;;6.13;1.88;;;10.00;63.70;;;;;;4990185;28;20101;-86
2023/05/27 02:10:54;;;;;;;7.53;2.10;;;10.00;63.60;;;;;;4974355;28;20051;-86
2023/05/27 02:13:23;;;;;;;7.47;2.22;;;9.90;63.80;;;;;;4973995;28;20169;-86
2023/05/27 02:15:50;;;;;;;9.47;2.37;;;9.80;64.00;;;;;;5006094;28;20994;-86
2023/05/27 02:18:17;;;;;;;6.40;1.70;;;9.80;64.10;;;;;;4973823;28;20057;-86
2023/05/27 02:20:45;;;;;;;7.20;1.80;;;9.80;64.00;;;;;;4989835;28;20130;-86
2023/05/27 02:23:13;;;;;;;6.28;1.80;;;9.70;64.20;;;;;;4973861;28;21109;-86
2023/05/27 02:25:40;;;;;;;7.07;2.08;;;9.70;64.30;;;;;;4973759;28;20047;-86
2023/05/27 02:28:07;;;;;;;7.03;2.00;;;9.70;64.50;;;;;;4973890;28;20133;-86
2023/05/27 02:30:36;;;;;;;6.45;1.70;;;9.70;64.70;;;;;;4973482;28;20082;-85
2023/05/27 02:33:03;;;;;;;7.60;2.05;;;9.60;64.80;;;;;;4989735;28;20058;-85
2023/05/27 02:35:30;;;;;;;7.85;2.30;;;9.60;65.00;;;;;;4974025;28;20581;-85
2023/05/27 02:37:58;;;;;;;8.02;2.10;;;9.60;65.10;;;;;;4974461;28;20054;-85
2023/05/27 02:40:26;;;;;;;10.33;2.63;;;9.50;65.40;;;;;;4974819;28;20544;-85
2023/05/27 02:42:56;;;;;;;8.63;2.40;;;9.50;65.40;;;;;;4975202;28;20105;-85
2023/05/27 02:45:23;;;;;;;17.83;3.38;;;9.50;65.40;;;;;;4974165;28;20109;-86
2023/05/27 02:47:55;;;;;;;13.25;2.80;;;9.50;65.30;;;;;;4969739;28;20055;-87
2023/05/27 02:50:22;;;;;;;13.15;2.80;;;9.50;65.40;;;;;;4973471;28;20109;-86
2023/05/27 02:52:49;;;;;;;15.70;3.17;;;9.50;65.40;;;;;;4973132;28;20490;-88
2023/05/27 02:55:16;;;;;;;10.13;2.85;;;9.50;65.10;;;;;;4973497;28;20043;-86
2023/05/27 02:57:43;;;;;;;10.43;2.78;;;9.50;65.00;;;;;;4973004;28;20055;-86
2023/05/27 03:00:13;;;;;;;8.60;2.10;;;9.50;65.00;;;;;;4989570;28;20081;-86
2023/05/27 03:02:42;;;;;;;7.50;2.38;;;9.50;65.10;;;;;;4973862;28;20062;-87
2023/05/27 03:05:11;;;;;;;6.03;2.30;;;9.50;65.20;;;;;;4973543;28;20552;-86
2023/05/27 03:07:41;;;;;;;7.65;2.05;;;9.50;65.30;;;;;;4973855;28;20058;-87
2023/05/27 03:10:08;;;;;;;10.30;2.30;;;9.50;65.20;;;;;;4973659;28;20850;-86
2023/05/27 03:12:36;;;;;;;8.52;2.38;;;9.50;65.50;;;;;;4973096;28;20058;-86
2023/05/27 03:15:03;;;;;;;9.50;2.63;;;9.40;65.70;;;;;;4973014;28;20078;-85
2023/05/27 03:17:36;;;;;;;7.53;2.40;;;9.40;65.90;;;;;;4972582;28;21010;-86
2023/05/27 03:20:07;;;;;;;8.57;2.90;;;9.40;66.20;;;;;;4973104;28;20059;-86
2023/05/27 03:22:36;;;;;;;9.43;2.83;;;9.40;66.30;;;;;;4956566;28;20057;-86
2023/05/27 03:25:04;;;;;;;11.07;2.90;;;9.40;66.70;;;;;;4972831;28;20075;-85
2023/05/27 03:27:31;;;;;;;12.00;2.80;;;9.40;66.90;;;;;;4972333;28;20609;-87
2023/05/27 03:29:59;;;;;;;9.03;2.53;;;9.40;67.10;;;;;;4973021;28;20043;-86
2023/05/27 03:32:27;;;;;;;11.07;3.28;;;9.40;67.20;;;;;;4957273;28;20086;-85
2023/05/27 03:34:54;;;;;;;8.35;2.60;;;9.40;67.10;;;;;;4973235;28;20050;-87
2023/05/27 03:37:21;;;;;;;10.02;2.40;;;9.40;67.20;;;;;;4973393;28;20054;-87
2023/05/27 03:39:58;;;;;;;9.95;2.70;;;9.40;67.10;;;;;;4973795;28;20166;-86
2023/05/27 03:42:25;;;;;;;8.67;3.00;;;9.40;67.30;;;;;;4973220;28;20055;-86
2023/05/27 03:44:53;;;;;;;9.02;2.80;;;9.40;67.30;;;;;;4974331;28;20134;-84
2023/05/27 03:47:21;;;;;;;8.75;2.92;;;9.40;67.20;;;;;;4972610;28;20531;-87
2023/05/27 03:49:48;;;;;;;9.20;2.60;;;9.40;67.50;;;;;;4989686;28;20047;-86
2023/05/27 03:52:16;;;;;;;11.75;3.00;;;9.40;67.30;;;;;;4986193;28;20142;-87
2023/05/27 03:54:43;;;;;;;10.33;2.97;;;9.40;67.30;;;;;;4989660;28;20050;-86
2023/05/27 03:57:11;;;;;;;11.82;3.17;;;9.40;67.00;;;;;;4989118;28;20054;-87
2023/05/27 03:59:40;;;;;;;12.00;3.13;;;9.40;67.60;;;;;;4989578;28;20975;-88
2023/05/27 04:02:07;;;;;;;13.30;3.42;;;9.40;67.20;;;;;;4989328;28;20070;-87
2023/05/27 04:04:35;;;;;;;12.55;3.05;;;9.40;67.60;;;;;;4989822;28;20065;-87
2023/05/27 04:07:05;;;;;;;9.37;2.63;;;9.40;67.80;;;;;;4989326;28;20564;-88
2023/05/27 04:09:32;;;;;;;10.23;2.78;;;9.40;68.00;;;;;;4972908;28;20051;-86
2023/05/27 04:12:00;;;;;;;10.02;2.78;;;9.40;67.50;;;;;;4972813;28;20054;-87
2023/05/27 04:14:28;;;;;;;14.85;3.22;;;9.30;67.90;;;;;;4973438;28;20103;-86
2023/05/27 04:16:55;;;;;;;12.27;3.30;;;9.40;68.30;;;;;;4989675;28;20134;-87
2023/05/27 04:19:22;;;;;;;10.97;2.90;;;9.30;68.30;;;;;;4990276;28;20548;-87
2023/05/27 04:21:50;;;;;;;13.95;3.22;;;9.30;68.50;;;;;;4973802;28;20062;-87
2023/05/27 04:24:17;;;;;;;13.57;2.92;;;9.40;68.60;;;;;;4972419;28;20489;-86
2023/05/27 04:26:46;;;;;;;11.32;3.05;;;9.40;68.40;;;;;;4974659;28;20055;-87
2023/05/27 04:29:15;;;;;;;13.63;3.00;;;9.40;68.60;;;;;;4972535;28;20134;-88
2023/05/27 04:31:47;;;;;;;10.93;2.60;;;9.40;68.70;;;;;;4976147;28;20065;-88
2023/05/27 04:34:20;;;;;;;14.02;2.85;;;9.40;69.30;;;;;;4977958;28;20054;-88
2023/05/27 04:36:49;;;;;;;11.85;2.78;;;9.40;69.80;;;;;;5009291;28;20105;-87
2023/05/27 04:39:20;;;;;;;14.60;3.13;;;9.40;70.10;;;;;;4975723;28;20043;-87
2023/05/27 04:41:47;;;;;;;11.85;2.72;;;9.40;70.40;;;;;;4976114;28;20059;-86
2023/05/27 04:44:28;;;;;;;10.13;2.57;;;9.40;70.50;;;;;;4976098;28;20051;-88
2023/05/27 04:46:58;;;;;;;12.80;3.35;;;9.40;71.00;;;;;;4976109;28;20055;-86
2023/05/27 04:49:26;;;;;;;14.35;3.17;;;9.40;70.50;;;;;;4976406;28;20094;-87
2023/05/27 04:51:54;;;;;;;11.90;2.95;;;9.40;70.60;;;;;;4973907;28;22175;-88
2023/05/27 04:54:22;;;;;;;16.85;3.05;;;9.40;70.90;;;;;;4982683;28;20129;-88
2023/05/27 04:56:51;;;;;;;11.67;3.40;;;9.50;70.70;;;;;;4979232;28;20055;-89
2023/05/27 04:59:29;;;;;;;13.05;3.35;;;9.50;71.60;;;;;;4973687;28;20055;-87
2023/05/27 05:02:10;;;;;;;10.45;3.10;;;9.50;71.80;;;;;;4985249;28;20047;-87
2023/05/27 05:04:43;;;;;;;11.73;2.83;;;9.50;72.10;;;;;;4986422;28;20055;-89
2023/05/27 05:07:11;;;;;;;12.27;3.00;;;9.60;71.70;;;;;;4975435;28;20055;-87
2023/05/27 05:09:41;;;;;;;13.30;3.13;;;9.60;72.30;;;;;;4976050;28;20134;-89
2023/05/27 05:12:14;;;;;;;12.45;3.00;;;9.60;72.20;;;;;;4975941;28;20046;-90
2023/05/27 05:14:45;;;;;;;9.52;2.60;;;9.60;72.60;;;;;;4958897;28;20501;-88
2023/05/27 05:17:14;;;;;;;12.88;3.13;;;9.70;72.40;;;;;;4990949;28;21005;-87
2023/05/27 05:19:44;;;;;;;14.63;3.10;;;9.70;72.40;;;;;;4980641;28;20127;-88
2023/05/27 05:22:12;;;;;;;12.60;2.93;;;9.70;73.30;;;;;;4972058;28;20062;-88
2023/05/27 05:24:40;;;;;;;15.07;3.50;;;9.80;73.10;;;;;;4976024;28;20500;-88
2023/05/27 05:27:07;;;;;;;17.90;3.13;;;9.80;73.20;;;;;;4976307;28;20150;-89
2023/05/27 05:29:34;;;;;;;9.43;2.83;;;9.80;73.60;;;;;;4975996;28;20521;-88
2023/05/27 05:32:01;;;;;;;11.48;2.95;;;9.80;73.20;;;;;;4986142;28;20065;-88
2023/05/27 05:34:30;;;;;;;13.60;2.93;;;9.90;73.40;;;;;;4991456;28;20051;-89
2023/05/27 05:36:57;;;;;;;11.70;3.10;;;9.90;73.10;;;;;;4975768;28;20066;-87
2023/05/27 05:39:25;;;;;;;12.80;2.60;;;10.00;73.80;;;;;;4987847;28;20190;-88
2023/05/27 05:41:55;;;;;;;11.23;2.50;;;10.00;74.10;;;;;;4985710;28;20051;-90
2023/05/27 05:44:22;;;;;;;10.93;2.75;;;10.00;74.00;;;;;;4976949;28;20051;-89
2023/05/27 05:46:53;;;;;;;12.33;3.17;;;10.10;73.80;;;;;;4979036;28;20054;-88
2023/05/27 05:49:22;;;;;;;13.85;3.05;;;10.10;73.80;;;;;;4956493;28;20047;-88
2023/05/27 05:51:52;;;;;;;10.70;2.60;;;10.10;74.00;;;;;;4965285;28;20078;-88
2023/05/27 05:54:19;;;;;;;12.95;2.80;;;10.20;73.90;;;;;;4976097;28;20047;-89
2023/05/27 05:56:52;;;;;;;13.10;2.83;;;10.20;74.20;;;;;;4975027;28;20990;-89
2023/05/27 05:59:20;;;;;;;13.13;3.30;;;10.20;73.50;;;;;;4974489;28;20050;-88
2023/05/27 06:01:47;;;;;;;13.43;2.63;;;10.20;73.20;;;;;;4971932;28;20046;-87
2023/05/27 06:04:17;;;;;;;10.38;2.22;;;10.30;73.80;;;;;;4995042;28;20093;-88
2023/05/27 06:06:46;;;;;;;14.20;2.70;;;10.30;74.20;;;;;;4976996;28;20858;-88
2023/05/27 06:09:32;;;;;;;12.63;2.92;;;10.30;73.60;;;;;;4974159;28;20059;-88
2023/05/27 06:12:04;;;;;;;13.13;2.67;;;10.40;74.30;;;;;;4958506;28;20055;-90
2023/05/27 06:14:39;;;;;;;12.60;3.05;;;10.40;74.40;;;;;;4983787;28;20058;-88
2023/05/27 06:17:08;;;;;;;13.65;2.70;;;10.50;74.40;;;;;;4976022;28;20101;-89
2023/05/27 06:19:35;;;;;;;11.07;2.42;;;10.50;74.30;;;;;;4959163;28;20189;-89
2023/05/27 06:22:04;;;;;;;13.23;2.75;;;10.50;74.60;;;;;;4973876;28;20146;-88
2023/05/27 06:25:11;;;;;;;11.57;2.53;;;10.60;74.70;;;;;;4959728;28;20105;-89
2023/05/27 06:27:51;;;;;;;15.50;3.00;;;10.60;74.60;;;;;;4973793;28;20065;-90
2023/05/27 06:30:19;;;;;;;14.98;3.25;;;10.70;74.70;;;;;;4958414;28;20085;-90
2023/05/27 06:32:48;;;;;;;10.57;2.58;;;10.70;74.70;;;;;;4958059;28;20098;-88
2023/05/27 06:35:16;;;;;;;11.07;2.85;;;10.70;74.80;;;;;;4959610;28;20050;-90
2023/05/27 06:37:43;;;;;;;15.03;2.73;;;10.70;74.70;;;;;;4957465;28;20563;-86
2023/05/27 06:40:16;;;;;;;15.02;2.78;;;10.80;75.10;;;;;;4974196;28;20062;-88
2023/05/27 06:42:44;;;;;;;16.38;3.05;;;10.80;74.80;;;;;;4971156;28;20161;-88
2023/05/27 06:45:38;;;;;;;10.75;2.78;;;10.90;75.30;;;;;;4975556;28;20046;-88
2023/05/27 06:48:20;;;;;;;15.20;2.97;;;10.90;74.90;;;;;;4969907;28;20093;-89
2023/05/27 06:50:49;;;;;;;11.33;3.00;;;11.00;75.20;;;;;;4957011;28;20177;-90
2023/05/27 06:53:18;;;;;;;10.20;2.25;;;11.00;75.00;;;;;;4970903;28;20141;-88
2023/05/27 06:56:05;;;;;;;11.55;2.50;;;11.10;75.90;;;;;;4972042;28;20065;-87
2023/05/27 06:58:51;;;;;;;10.70;2.58;;;11.10;75.90;;;;;;4978129;28;20129;-88
2023/05/27 07:01:20;;;;;;;11.88;2.60;;;11.20;75.90;;;;;;4967404;28;20465;-90
2023/05/27 07:03:52;;;;;;;13.90;3.30;;;11.30;76.00;;;;;;4952923;28;20094;-89
2023/05/27 07:06:27;;;;;;;12.18;2.55;;;11.30;75.90;;;;;;4962901;28;20101;-90
2023/05/27 07:08:56;;;;;;;14.75;2.90;;;11.40;75.60;;;;;;4977779;28;21060;-89
2023/05/27 07:11:29;;;;;;;11.05;2.40;;;11.50;75.60;;;;;;4971536;28;20055;-85
2023/05/27 07:14:01;;;;;;;13.32;2.90;;;11.50;75.40;;;;;;4968179;28;20051;-87
2023/05/27 07:16:32;;;;;;;10.07;2.47;;;11.50;75.40;;;;;;4948502;28;20059;-88
2023/05/27 07:18:59;;;;;;;10.73;2.63;;;11.70;75.40;;;;;;4971175;28;20126;-88
2023/05/27 07:21:30;;;;;;;18.40;3.33;;;11.70;75.20;;;;;;4962792;28;20053;-88
2023/05/27 07:23:58;;;;;;;12.07;2.72;;;11.70;75.20;;;;;;4972050;28;20055;-87
2023/05/27 07:26:34;;;;;;;13.93;3.00;;;11.80;75.00;;;;;;4971733;28;20161;-86
2023/05/27 07:29:02;;;;;;;15.13;2.73;;;11.90;75.00;;;;;;4967479;28;20054;-84
2023/05/27 07:31:48;;;;;;;11.00;2.40;;;11.90;74.80;;;;;;4961914;28;20137;-88
2023/05/27 07:34:18;;;;;;;13.02;2.83;;;11.90;74.70;;;;;;4950731;28;20060;-84
2023/05/27 07:36:45;;;;;;;10.52;2.83;;;12.00;74.70;;;;;;4968347;28;20142;-85
2023/05/27 07:39:12;;;;;;;12.27;3.10;;;12.10;74.40;;;;;;4952778;28;20061;-84
2023/05/27 07:41:41;;;;;;;9.03;2.50;;;12.10;74.30;;;;;;4967622;28;20892;-86
2023/05/27 07:44:10;;;;;;;13.63;2.97;;;12.20;74.30;;;;;;4950823;28;20051;-86
2023/05/27 07:46:38;;;;;;;9.98;2.70;;;12.20;74.30;;;;;;4986874;28;20054;-87
2023/05/27 07:49:32;;;;;;;43.30;6.03;;;12.30;74.30;;;;;;4969087;28;20059;-91
2023/05/27 07:52:21;;;;;;;11.02;2.42;;;12.40;74.20;;;;;;4967782;28;20055;-88
2023/05/27 07:54:48;;;;;;;11.17;2.00;;;12.50;73.90;;;;;;4967757;28;20161;-87
2023/05/27 08:00:03;;;;;;;14.73;3.22;;;12.50;73.80;;;;;;4956618;28;20054;-86
2023/05/27 08:02:53;;;;;;;14.45;3.65;;;12.60;73.70;;;;;;4967338;28;20043;-84
2023/05/27 08:05:26;;;;;;;15.48;3.22;;;12.70;73.40;;;;;;4969132;28;20039;-83
2023/05/27 08:08:19;;;;;;;13.17;2.97;;;12.70;73.30;;;;;;4957845;28;20401;-83
2023/05/27 08:11:09;;;;;;;12.93;2.67;;;12.80;73.60;;;;;;4979783;28;20054;-85
2023/05/27 08:13:52;;;;;;;11.45;3.13;;;12.90;73.30;;;;;;4965252;28;20537;-80
2023/05/27 08:16:38;;;;;;;14.02;3.10;;;12.90;73.20;;;;;;4979689;28;20050;-79
2023/05/27 08:19:11;;;;;;;12.90;3.17;;;13.00;73.00;;;;;;4969800;28;20050;-83
2023/05/27 08:22:03;;;;;;;15.20;3.07;;;13.00;73.00;;;;;;4973896;28;20122;-83
2023/05/27 08:24:49;;;;;;;17.38;3.13;;;13.10;72.80;;;;;;4959844;28;20552;-88
2023/05/27 08:27:45;;;;;;;13.93;3.22;;;13.20;72.70;;;;;;4982905;28;20121;-85
2023/05/27 08:30:19;;;;;;;13.00;3.75;;;13.30;72.60;;;;;;4952897;28;20047;-86
2023/05/27 08:32:55;;;;;;;17.52;3.97;;;13.30;72.40;;;;;;4967481;28;20058;-79
2023/05/27 08:35:23;;;;;;;15.20;3.83;;;13.30;72.40;;;;;;4966172;28;20157;-83
2023/05/27 08:38:01;;;;;;;14.52;3.08;;;13.50;72.30;;;;;;4951833;28;20055;-79
2023/05/27 08:40:34;;;;;;;15.95;3.08;;;13.50;72.30;;;;;;4969323;28;20223;-80
2023/05/27 08:43:02;;;;;;;14.73;4.07;;;13.60;71.90;;;;;;4964463;28;20054;-84
2023/05/27 08:45:33;;;;;;;16.50;3.83;;;13.60;72.00;;;;;;4963090;28;20134;-83
2023/05/27 08:48:02;;;;;;;12.43;3.70;;;13.70;71.90;;;;;;4953245;28;20095;-80
2023/05/27 08:50:35;;;;;;;14.88;3.30;;;13.80;71.60;;;;;;4983369;28;20206;-82
2023/05/27 08:53:04;;;;;;;13.18;3.40;;;13.90;71.40;;;;;;4963612;28;20169;-84
2023/05/27 08:55:33;;;;;;;15.85;4.05;;;13.90;71.10;;;;;;4959000;28;20079;-82
2023/05/27 08:58:02;;;;;;;15.73;3.90;;;13.90;71.00;;;;;;4964513;28;20043;-84
2023/05/27 09:00:35;;;;;;;11.80;3.60;;;14.00;71.10;;;;;;4964549;28;20055;-83
2023/05/27 09:03:18;;;;;;;12.55;3.35;;;14.00;70.80;;;;;;4966038;28;20194;-78
2023/05/27 09:05:46;;;;;;;11.52;3.30;;;14.10;70.50;;;;;;4983242;28;20090;-80
2023/05/27 09:08:14;;;;;;;11.48;3.78;;;14.20;70.10;;;;;;4985416;28;20074;-79
2023/05/27 09:10:43;;;;;;;14.95;3.78;;;14.20;69.90;;;;;;4986325;28;20054;-80
2023/05/27 09:13:11;;;;;;;11.40;3.40;;;14.30;69.90;;;;;;4980472;28;20047;-83
2023/05/27 09:15:41;;;;;;;15.57;3.70;;;14.30;69.80;;;;;;4967598;28;20137;-86
2023/05/27 09:18:08;;;;;;;12.35;3.33;;;14.40;69.90;;;;;;4965785;28;21023;-83
2023/05/27 09:20:37;;;;;;;17.42;4.10;;;14.50;69.70;;;;;;4970565;28;20057;-84
2023/05/27 09:23:05;;;;;;;13.95;3.70;;;14.50;69.70;;;;;;4978741;28;20107;-86
2023/05/27 09:25:32;;;;;;;12.63;3.20;;;14.60;69.60;;;;;;4971465;28;20537;-89
2023/05/27 09:28:00;;;;;;;15.02;3.65;;;14.70;69.30;;;;;;4980059;28;20057;-87
2023/05/27 09:30:29;;;;;;;14.63;4.10;;;14.70;69.20;;;;;;4985171;28;20054;-86
2023/05/27 09:33:04;;;;;;;13.88;3.97;;;14.80;69.10;;;;;;4984032;28;20055;-86
2023/05/27 09:35:31;;;;;;;16.52;4.20;;;14.90;69.00;;;;;;4981860;28;20050;-85
2023/05/27 09:38:06;;;;;;;15.30;3.50;;;14.90;68.50;;;;;;4975961;28;20059;-85
2023/05/27 09:40:37;;;;;;;14.80;3.45;;;15.00;68.60;;;;;;4981721;28;20121;-85
2023/05/27 09:43:04;;;;;;;13.45;3.30;;;15.00;68.50;;;;;;4972994;28;20055;-83
2023/05/27 09:45:32;;;;;;;11.00;3.70;;;15.20;68.20;;;;;;4974075;28;20551;-83
2023/05/27 09:48:05;;;;;;;15.77;3.63;;;15.30;68.00;;;;;;4975886;28;20137;-84
2023/05/27 09:50:33;;;;;;;15.77;3.80;;;15.30;68.00;;;;;;4963345;28;20046;-82
2023/05/27 09:53:01;;;;;;;13.00;3.30;;;15.40;67.70;;;;;;4976106;28;20138;-86
2023/05/27 09:55:33;;;;;;;12.52;3.85;;;15.50;67.30;;;;;;4981848;28;20960;-88
2023/05/27 09:58:01;;;;;;;13.57;3.50;;;15.50;67.20;;;;;;4971837;28;20735;-87
2023/05/27 10:00:29;;;;;;;12.73;3.45;;;15.60;67.10;;;;;;4987145;28;20051;-82
2023/05/27 10:02:58;;;;;;;14.47;3.43;;;15.60;66.80;;;;;;4985214;28;20089;-86
2023/05/27 10:05:29;;;;;;;21.48;4.10;;;15.80;66.80;;;;;;4987757;28;20101;-89
2023/05/27 10:07:59;;;;;;;14.05;3.90;;;15.80;66.60;;;;;;4981537;28;20435;-90
2023/05/27 10:10:26;;;;;;;12.25;3.53;;;16.00;66.50;;;;;;4985030;28;20125;-83
2023/05/27 10:12:56;;;;;;;16.02;4.20;;;16.00;66.40;;;;;;4962916;28;20054;-82
2023/05/27 10:15:24;;;;;;;12.73;3.77;;;16.10;66.00;;;;;;4958730;28;20085;-82
2023/05/27 10:17:55;;;;;;;13.73;3.75;;;16.20;65.90;;;;;;4972729;28;20059;-83
2023/05/27 10:20:29;;;;;;;13.27;3.85;;;16.20;65.90;;;;;;4968331;28;20134;-84
2023/05/27 10:23:09;;;;;;;11.60;3.50;;;16.30;65.40;;;;;;4969966;28;20051;-82
2023/05/27 10:25:37;;;;;;;11.35;3.33;;;16.40;65.10;;;;;;4973755;28;20057;-85
2023/05/27 10:28:04;;;;;;;12.47;3.50;;;16.40;64.70;;;;;;4973883;28;20947;-80
2023/05/27 10:30:44;;;;;;;14.90;3.72;;;16.50;64.40;;;;;;4966157;28;20242;-82
2023/05/27 10:33:11;;;;;;;15.38;3.97;;;16.70;64.50;;;;;;4972894;28;20055;-81
2023/05/27 10:35:43;;;;;;;12.60;4.15;;;16.70;64.70;;;;;;4985814;28;20293;-84
2023/05/27 10:38:18;;;;;;;14.90;3.75;;;16.80;64.70;;;;;;4982103;28;20153;-80
2023/05/27 10:40:59;;;;;;;11.50;3.70;;;16.90;64.20;;;;;;4959333;28;20047;-82
2023/05/27 10:43:28;;;;;;;10.70;3.10;;;17.00;64.20;;;;;;4980467;28;20058;-84
2023/05/27 10:46:03;;;;;;;13.02;3.40;;;17.00;64.20;;;;;;4967904;28;20074;-80
2023/05/27 10:48:34;;;;;;;11.23;3.60;;;17.10;64.00;;;;;;4969266;28;20053;-90
2023/05/27 10:51:04;;;;;;;13.93;3.80;;;17.20;63.80;;;;;;4973684;28;20094;-85
2023/05/27 10:53:33;;;;;;;13.60;4.10;;;17.20;63.60;;;;;;4982430;28;20089;-85
2023/05/27 10:56:01;;;;;;;11.57;3.47;;;17.40;63.50;;;;;;4970200;28;20571;-84
2023/05/27 10:58:29;;;;;;;14.15;3.60;;;17.40;63.20;;;;;;4942237;28;20046;-81
2023/05/27 11:00:57;;;;;;;12.27;3.40;;;17.50;63.00;;;;;;4970498;28;20133;-90
2023/05/27 11:03:27;;;;;;;18.13;3.70;;;17.50;62.60;;;;;;4958780;28;20066;-86
2023/05/27 11:06:04;;;;;;;17.03;4.40;;;17.60;63.00;;;;;;4986835;28;20062;-86
2023/05/27 11:08:34;;;;;;;17.38;4.25;;;17.70;62.90;;;;;;4988932;28;20057;-93
2023/05/27 11:11:03;;;;;;;12.00;3.88;;;17.80;62.90;;;;;;4980298;28;20114;-80
2023/05/27 11:13:32;;;;;;;18.75;4.22;;;17.80;62.40;;;;;;4972154;28;20852;-85
2023/05/27 11:16:00;;;;;;;12.30;3.67;;;17.90;61.80;;;;;;4976033;28;20049;-84
2023/05/27 11:18:35;;;;;;;12.90;3.57;;;18.00;61.80;;;;;;4971449;28;20105;-83
2023/05/27 11:21:04;;;;;;;12.30;3.83;;;18.10;61.80;;;;;;4970034;28;20169;-82
2023/05/27 11:23:40;;;;;;;11.45;3.65;;;18.10;61.80;;;;;;4985302;28;20046;-83
2023/05/27 11:26:15;;;;;;;12.55;3.22;;;18.20;61.50;;;;;;4986974;28;20138;-82
2023/05/27 11:28:50;;;;;;;16.75;3.97;;;18.30;61.70;;;;;;4970350;28;20567;-82
2023/05/27 11:31:17;;;;;;;10.03;3.20;;;18.40;61.60;;;;;;4970937;28;20058;-81
2023/05/27 11:33:46;;;;;;;10.00;3.30;;;18.40;61.20;;;;;;4988006;28;20173;-82
2023/05/27 11:36:16;;;;;;;10.15;3.38;;;18.50;60.50;;;;;;4986498;28;20047;-81
2023/05/27 11:38:51;;;;;;;12.73;3.80;;;18.60;60.10;;;;;;4985306;28;20133;-81
2023/05/27 11:41:19;;;;;;;10.40;3.00;;;18.60;60.20;;;;;;4953108;28;20062;-81
2023/05/27 11:43:55;;;;;;;17.07;3.77;;;18.70;60.70;;;;;;4978681;28;20046;-80
2023/05/27 11:46:23;;;;;;;11.32;3.50;;;18.80;60.10;;;;;;4977107;28;20062;-82
2023/05/27 11:48:50;;;;;;;10.90;3.03;;;18.90;59.60;;;;;;4973212;28;20055;-82
2023/05/27 11:51:18;;;;;;;13.10;3.25;;;19.00;59.80;;;;;;4966346;28;20069;-82
2023/05/27 11:53:46;;;;;;;13.40;3.80;;;19.10;59.90;;;;;;4965562;28;20142;-82
2023/05/27 11:56:15;;;;;;;15.77;3.63;;;19.10;59.80;;;;;;4968694;28;20691;-81
2023/05/27 11:58:42;;;;;;;13.07;3.45;;;19.20;59.20;;;;;;4952424;28;20050;-81
2023/05/27 12:01:09;;;;;;;11.20;3.50;;;19.30;59.30;;;;;;4968030;28;20682;-83
2023/05/27 12:03:36;;;;;;;9.00;3.17;;;19.30;59.30;;;;;;4975541;28;20047;-82
2023/05/27 12:06:04;;;;;;;13.32;3.20;;;19.40;59.20;;;;;;4980051;28;20061;-84
2023/05/27 12:08:32;;;;;;;10.17;3.50;;;19.50;58.00;;;;;;4969343;28;20928;-84
2023/05/27 12:10:59;;;;;;;11.95;3.50;;;19.50;58.00;;;;;;4969735;28;20134;-85
2023/05/27 12:13:28;;;;;;;10.65;3.53;;;19.60;58.10;;;;;;4986076;28;20054;-84
2023/05/27 12:15:55;;;;;;;26.33;4.15;;;19.70;58.20;;;;;;4983314;28;20129;-84
2023/05/27 12:18:23;;;;;;;13.43;3.70;;;19.70;57.40;;;;;;4980955;28;20158;-85
2023/05/27 12:20:50;;;;;;;30.47;5.03;;;19.80;57.30;;;;;;4981359;28;20055;-81
2023/05/27 12:23:17;;;;;;;16.80;3.88;;;19.90;56.90;;;;;;4971558;28;20055;-82
2023/05/27 12:25:46;;;;;;;11.48;3.65;;;20.00;56.10;;;;;;4982085;28;20063;-84
2023/05/27 12:28:13;;;;;;;13.13;3.22;;;20.00;56.40;;;;;;4971875;28;20062;-84
2023/05/27 12:30:40;;;;;;;15.55;3.58;;;20.10;56.00;;;;;;4970048;28;20061;-85
2023/05/27 12:33:08;;;;;;;12.63;3.60;;;20.30;55.80;;;;;;4953904;28;20182;-84
2023/05/27 12:35:35;;;;;;;10.23;3.20;;;20.30;55.90;;;;;;4972624;28;20062;-85
2023/05/27 12:38:02;;;;;;;13.30;3.17;;;20.40;56.00;;;;;;4964522;28;20051;-85
2023/05/27 12:40:30;;;;;;;12.30;3.60;;;20.50;56.40;;;;;;4981796;28;20050;-85
2023/05/27 12:42:58;;;;;;;9.35;3.05;;;20.50;56.00;;;;;;4984062;28;20063;-85
2023/05/27 12:45:26;;;;;;;12.73;3.43;;;20.60;55.60;;;;;;4969523;28;20536;-88
2023/05/27 12:47:53;;;;;;;12.50;3.75;;;20.70;55.30;;;;;;4968854;28;20081;-88
2023/05/27 12:50:20;;;;;;;13.95;3.50;;;20.80;55.30;;;;;;4952266;28;20056;-88
2023/05/27 12:52:51;;;;;;;12.70;3.40;;;20.80;55.50;;;;;;4975038;28;20055;-87
2023/05/27 12:55:19;;;;;;;12.93;3.90;;;21.00;55.10;;;;;;4964171;28;20054;-84
2023/05/27 12:57:47;;;;;;;8.97;3.43;;;21.00;54.80;;;;;;4971172;28;20061;-83
2023/05/27 13:00:17;;;;;;;11.27;3.53;;;21.10;54.60;;;;;;4972526;28;20046;-86
2023/05/27 13:02:46;;;;;;;14.85;3.58;;;21.10;54.10;;;;;;4972091;28;20134;-84